createdAt,value
2023-04-16T00:03:50.779Z,10.65
2023-04-16T00:09:41.066Z,10.63
2023-04-16T00:15:30.488Z,10.48
2023-04-16T00:21:20.158Z,10.41
2023-04-16T00:27:12.286Z,10.31
2023-04-16T00:33:09.207Z,10.25
2023-04-16T00:38:56.822Z,10.29
2023-04-16T00:44:43.603Z,10.27
2023-04-16T00:50:35.582Z,10.13
2023-04-16T00:56:26.911Z,10.05
2023-04-16T01:02:15.089Z,10.10
2023-04-16T01:08:02.316Z,10.16
2023-04-16T01:13:52.090Z,10.24
2023-04-16T01:19:39.013Z,10.07
2023-04-16T01:25:28.909Z,10.04
2023-04-16T01:31:15.961Z,10.12
2023-04-16T01:37:13.467Z,10.07
2023-04-16T01:43:00.617Z,10.20
2023-04-16T01:48:47.504Z,10.06
2023-04-16T01:54:34.208Z,9.98
2023-04-16T02:00:21.126Z,9.85
2023-04-16T02:06:07.887Z,9.75
2023-04-16T02:11:56.024Z,9.59
2023-04-16T02:17:43.936Z,9.63
2023-04-16T02:23:31.051Z,9.67
2023-04-16T02:29:19.863Z,9.75
2023-04-16T02:35:13.256Z,9.70
2023-04-16T02:41:11.036Z,9.84
2023-04-16T02:46:58.070Z,9.78
2023-04-16T02:52:45.101Z,9.86
2023-04-16T02:58:31.943Z,9.76
2023-04-16T03:04:21.662Z,9.79
2023-04-16T03:10:10.493Z,9.81
2023-04-16T03:15:59.891Z,9.83
2023-04-16T03:21:48.285Z,9.83
2023-04-16T03:27:42.090Z,9.75
2023-04-16T03:33:33.341Z,9.70
2023-04-16T03:39:22.892Z,9.74
2023-04-16T03:45:10.321Z,9.50
2023-04-16T03:50:59.432Z,9.51
2023-04-16T03:56:50.158Z,9.59
2023-04-16T04:02:39.994Z,9.57
2023-04-16T04:08:31.604Z,9.76
2023-04-16T04:14:20.896Z,9.82
2023-04-16T04:20:08.102Z,9.78
2023-04-16T04:25:56.469Z,9.74
2023-04-16T04:31:44.991Z,9.71
2023-04-16T04:37:40.735Z,9.80
2023-04-16T04:43:49.553Z,9.91
2023-04-16T04:49:37.566Z,9.91
2023-04-16T04:55:27.024Z,9.94
2023-04-16T05:01:17.306Z,10.05
2023-04-16T05:07:05.261Z,10.02
2023-04-16T05:12:56.717Z,10.09
2023-04-16T05:18:46.364Z,10.16
2023-04-16T05:24:35.278Z,10.16
2023-04-16T05:30:24.933Z,10.10
2023-04-16T05:36:16.566Z,10.13
2023-04-16T05:42:03.822Z,10.02
2023-04-16T05:47:50.768Z,10.19
2023-04-16T05:53:49.402Z,10.19
2023-04-16T05:59:53.633Z,10.38
2023-04-16T06:05:41.722Z,10.17
2023-04-16T06:11:30.223Z,10.23
2023-04-16T06:17:17.137Z,10.29
2023-04-16T06:23:07.921Z,10.49
2023-04-16T06:28:57.600Z,10.72
2023-04-16T06:34:47.458Z,10.95
2023-04-16T06:40:34.329Z,11.09
2023-04-16T06:46:21.308Z,11.23
2023-04-16T06:52:09.138Z,11.37
2023-04-16T06:57:56.506Z,11.50
2023-04-16T07:03:43.549Z,11.64
2023-04-16T07:09:32.178Z,11.86
2023-04-16T07:15:19.070Z,11.99
2023-04-16T07:21:05.813Z,12.32
2023-04-16T07:26:52.877Z,12.70
2023-04-16T07:32:39.820Z,12.83
2023-04-16T07:38:26.581Z,13.02
2023-04-16T07:44:14.076Z,13.30
2023-04-16T07:50:01.750Z,13.73
2023-04-16T07:55:48.814Z,14.09
2023-04-16T08:01:36.559Z,14.34
2023-04-16T08:07:23.293Z,14.44
2023-04-16T08:13:10.040Z,14.70
2023-04-16T08:19:10.822Z,14.99
2023-04-16T08:24:57.946Z,15.28
2023-04-16T08:30:45.986Z,15.48
2023-04-16T08:36:32.859Z,15.70
2023-04-16T08:42:40.888Z,15.80
2023-04-16T08:48:33.646Z,16.00
2023-04-16T08:54:44.845Z,15.81
2023-04-16T09:00:32.776Z,16.00
2023-04-16T09:06:28.274Z,16.23
2023-04-16T09:12:52.132Z,17.02
2023-04-16T09:18:39.064Z,17.20
2023-04-16T09:24:32.021Z,17.32
2023-04-16T09:30:27.544Z,17.18
2023-04-16T09:36:23.600Z,17.16
2023-04-16T09:42:11.864Z,17.63
2023-04-16T09:48:06.167Z,17.69
2023-04-16T09:53:57.220Z,17.47
2023-04-16T09:59:44.015Z,17.28
2023-04-16T10:05:34.082Z,17.11
2023-04-16T10:11:24.423Z,17.29
2023-04-16T10:17:11.683Z,17.26
2023-04-16T10:22:59.100Z,17.31
2023-04-16T10:28:47.163Z,17.35
2023-04-16T10:34:35.112Z,17.40
2023-04-16T10:40:28.297Z,17.70
2023-04-16T10:46:54.963Z,18.38
2023-04-16T10:53:15.686Z,18.44
2023-04-16T10:59:09.334Z,19.09
2023-04-16T11:05:07.081Z,18.14
2023-04-16T11:10:58.925Z,17.91
2023-04-16T11:16:46.203Z,18.61
2023-04-16T11:22:40.755Z,19.29
2023-04-16T11:28:34.889Z,19.13
2023-04-16T11:34:27.426Z,19.09
2023-04-16T11:40:20.322Z,19.17
2023-04-16T11:46:20.541Z,18.47
2023-04-16T11:52:33.343Z,17.11
2023-04-16T11:58:43.437Z,17.19
2023-04-16T12:04:33.447Z,17.32
2023-04-16T12:10:20.089Z,18.02
2023-04-16T12:16:19.711Z,18.64
2023-04-16T12:22:06.627Z,18.63
2023-04-16T12:27:56.016Z,18.40
2023-04-16T12:33:42.785Z,18.75
2023-04-16T12:39:29.781Z,18.79
2023-04-16T12:45:16.914Z,19.10
2023-04-16T12:51:03.850Z,18.46
2023-04-16T12:56:50.843Z,18.41
2023-04-16T13:02:37.948Z,18.92
2023-04-16T13:08:24.992Z,18.93
2023-04-16T13:14:11.817Z,19.02
2023-04-16T13:19:58.733Z,18.80
2023-04-16T13:25:45.593Z,18.62
2023-04-16T13:31:32.513Z,18.67
2023-04-16T13:37:19.457Z,18.82
2023-04-16T13:43:07.777Z,19.00
2023-04-16T13:48:55.215Z,19.11
2023-04-16T13:54:42.731Z,19.17
2023-04-16T14:00:42.300Z,19.23
2023-04-16T14:06:29.226Z,18.74
2023-04-16T14:12:16.488Z,18.68
2023-04-16T14:18:03.949Z,18.91
2023-04-16T14:23:51.490Z,18.77
2023-04-16T14:29:38.484Z,18.39
2023-04-16T14:35:25.722Z,18.70
2023-04-16T14:41:13.572Z,18.73
2023-04-16T14:47:00.709Z,18.49
2023-04-16T14:52:47.495Z,18.47
2023-04-16T14:58:37.292Z,18.34
2023-04-16T15:04:26.299Z,18.80
2023-04-16T15:10:14.013Z,18.93
2023-04-16T15:16:07.424Z,18.77
2023-04-16T15:21:55.909Z,18.84
2023-04-16T15:27:43.125Z,18.70
2023-04-16T15:33:29.823Z,18.58
2023-04-16T15:39:16.490Z,18.77
2023-04-16T15:45:03.325Z,18.76
2023-04-16T15:50:50.481Z,18.72
2023-04-16T15:56:37.414Z,18.24
2023-04-16T16:02:24.746Z,17.99
2023-04-16T16:08:11.854Z,18.19
2023-04-16T16:14:01.153Z,17.98
2023-04-16T16:19:47.914Z,17.68
2023-04-16T16:25:34.834Z,17.67
2023-04-16T16:31:25.087Z,17.69
2023-04-16T16:37:20.995Z,17.65
2023-04-16T16:43:09.959Z,17.43
2023-04-16T16:48:56.876Z,17.54
2023-04-16T16:54:44.824Z,17.37
2023-04-16T17:00:31.989Z,17.63
2023-04-16T17:06:19.249Z,17.27
2023-04-16T17:12:06.505Z,17.08
2023-04-16T17:18:07.920Z,17.14
2023-04-16T17:24:03.824Z,17.40
2023-04-16T17:30:12.492Z,17.14
2023-04-16T17:36:01.685Z,17.33
2023-04-16T17:41:54.379Z,17.30
2023-04-16T17:47:44.906Z,17.34
2023-04-16T18:00:32.093Z,17.04
2023-04-16T18:22:07.927Z,16.22
2023-04-16T18:27:54.961Z,15.95
2023-04-16T18:33:57.410Z,15.79
2023-04-16T18:39:45.429Z,15.69
2023-04-16T18:45:40.053Z,15.59
2023-04-16T18:51:44.735Z,15.45
2023-04-16T18:57:52.234Z,15.29
2023-04-16T19:19:45.192Z,15.21
2023-04-16T19:39:51.627Z,14.74
2023-04-16T19:53:50.560Z,14.59
2023-04-16T20:23:37.674Z,14.50
2023-04-16T20:36:57.477Z,14.34
2023-04-16T20:50:25.680Z,14.49
2023-04-16T21:04:12.059Z,14.35
2023-04-16T21:10:00.988Z,14.45
2023-04-16T21:15:50.826Z,14.50
2023-04-16T21:28:53.310Z,14.36
2023-04-16T21:35:19.870Z,14.34
2023-04-16T21:41:12.498Z,14.41
2023-04-16T21:47:10.842Z,14.49
2023-04-16T21:52:58.104Z,14.41
2023-04-16T21:58:47.586Z,14.49
2023-04-16T22:11:50.064Z,14.28
2023-04-16T22:17:49.528Z,14.14
2023-04-16T22:23:52.245Z,14.00
2023-04-16T22:30:27.861Z,14.03
2023-04-16T23:07:06.959Z,14.19
2023-04-16T23:13:03.004Z,14.19
2023-04-16T23:19:00.530Z,14.22
2023-04-16T23:24:49.983Z,14.27
2023-04-16T23:30:51.193Z,14.10
2023-04-16T23:37:00.963Z,14.17
2023-04-16T23:42:47.823Z,14.23
2023-04-16T23:48:38.563Z,14.21
2023-04-16T23:54:29.305Z,14.15
